createdAt,value
2019-04-29T00:01:13.444Z,10.20
2019-04-29T00:05:18.419Z,10.10
2019-04-29T00:09:23.381Z,10.10
2019-04-29T00:13:28.165Z,10.20
2019-04-29T00:17:39.905Z,10.10
2019-04-29T00:21:44.920Z,10.10
2019-04-29T00:25:49.742Z,10.20
2019-04-29T00:29:54.739Z,10.10
2019-04-29T00:33:59.332Z,10.20
2019-04-29T00:38:22.036Z,10.20
2019-04-29T00:42:40.765Z,10.10
2019-04-29T00:46:46.015Z,10.10
2019-04-29T00:50:50.605Z,10.10
2019-04-29T00:55:01.286Z,10.00
2019-04-29T00:59:06.945Z,10.00
2019-04-29T01:03:11.679Z,10.10
2019-04-29T01:07:16.318Z,10.10
2019-04-29T01:11:21.029Z,9.90
2019-04-29T01:15:25.765Z,10.00
2019-04-29T01:19:30.493Z,10.00
2019-04-29T01:23:35.089Z,9.90
2019-04-29T01:27:45.500Z,9.80
2019-04-29T01:31:50.173Z,9.80
2019-04-29T01:36:23.178Z,9.70
2019-04-29T01:40:45.711Z,9.70
2019-04-29T01:44:50.553Z,9.60
2019-04-29T01:48:55.506Z,9.50
2019-04-29T01:53:01.463Z,9.50
2019-04-29T01:57:06.066Z,9.40
2019-04-29T02:01:10.779Z,9.40
2019-04-29T02:05:15.456Z,9.40
2019-04-29T02:09:45.686Z,9.50
2019-04-29T02:13:50.300Z,9.40
2019-04-29T02:17:54.943Z,9.30
2019-04-29T02:22:17.594Z,9.40
2019-04-29T02:26:22.199Z,9.20
2019-04-29T02:30:52.404Z,9.20
2019-04-29T02:34:57.111Z,9.30
2019-04-29T02:39:20.967Z,9.30
2019-04-29T02:43:28.799Z,9.30
2019-04-29T02:47:33.462Z,9.10
2019-04-29T02:51:48.157Z,9.10
2019-04-29T02:55:54.474Z,9.20
2019-04-29T03:00:08.014Z,9.10
2019-04-29T03:04:18.412Z,9.10
2019-04-29T03:08:23.010Z,9.10
2019-04-29T03:12:27.812Z,9.20
2019-04-29T03:16:32.564Z,9.10
2019-04-29T03:21:00.226Z,9.10
2019-04-29T03:25:05.178Z,9.10
2019-04-29T03:29:22.357Z,9.20
2019-04-29T03:33:27.385Z,9.20
2019-04-29T03:37:32.073Z,9.10
2019-04-29T03:41:36.678Z,9.20
2019-04-29T03:45:41.262Z,9.20
2019-04-29T03:49:45.975Z,9.20
2019-04-29T03:53:50.594Z,9.20
2019-04-29T03:57:55.924Z,9.30
2019-04-29T04:02:07.029Z,9.30
2019-04-29T04:06:24.588Z,9.20
2019-04-29T04:10:29.300Z,9.20
2019-04-29T04:14:33.967Z,9.20
2019-04-29T04:18:38.811Z,9.20
2019-04-29T04:22:47.430Z,9.20
2019-04-29T04:26:52.114Z,9.20
2019-04-29T04:30:56.731Z,9.20
2019-04-29T04:35:01.930Z,9.20
2019-04-29T04:39:07.747Z,9.30
2019-04-29T04:43:13.405Z,9.30
2019-04-29T04:47:19.869Z,9.40
2019-04-29T04:51:24.472Z,9.40
2019-04-29T04:55:31.581Z,9.40
2019-04-29T04:59:36.158Z,9.40
2019-04-29T05:03:40.772Z,9.50
2019-04-29T05:07:45.437Z,9.40
2019-04-29T05:11:50.275Z,9.50
2019-04-29T05:15:54.921Z,9.50
2019-04-29T05:19:59.913Z,9.50
2019-04-29T05:24:05.167Z,9.60
2019-04-29T05:28:09.828Z,9.60
2019-04-29T05:32:14.476Z,9.70
2019-04-29T05:36:34.125Z,9.80
2019-04-29T05:40:40.813Z,9.70
2019-04-29T05:45:03.626Z,9.50
2019-04-29T05:49:10.305Z,9.50
2019-04-29T05:53:18.738Z,9.50
2019-04-29T05:57:25.433Z,9.50
2019-04-29T06:01:31.004Z,9.50
2019-04-29T06:05:35.638Z,9.60
2019-04-29T06:09:40.296Z,9.70
2019-04-29T06:13:44.969Z,9.50
2019-04-29T06:17:50.568Z,9.50
2019-04-29T06:21:55.236Z,9.60
2019-04-29T06:25:59.877Z,9.60
2019-04-29T06:30:05.971Z,9.60
2019-04-29T06:34:10.737Z,9.60
2019-04-29T06:38:15.395Z,9.70
2019-04-29T06:42:20.475Z,9.70
2019-04-29T06:46:25.136Z,9.60
2019-04-29T06:50:30.149Z,9.60
2019-04-29T06:54:34.827Z,9.60
2019-04-29T06:58:39.522Z,9.60
2019-04-29T07:02:45.576Z,9.60
2019-04-29T07:06:57.502Z,9.70
2019-04-29T07:11:01.051Z,9.80
2019-04-29T07:15:07.754Z,9.90
2019-04-29T07:19:10.175Z,10.00
2019-04-29T07:23:14.808Z,10.10
2019-04-29T07:27:19.450Z,10.00
2019-04-29T07:31:28.385Z,10.10
2019-04-29T07:35:31.074Z,10.20
2019-04-29T07:39:35.755Z,10.30
2019-04-29T07:43:43.008Z,10.40
2019-04-29T07:47:56.170Z,10.40
2019-04-29T07:51:55.653Z,10.30
2019-04-29T07:56:01.836Z,10.20
2019-04-29T08:00:08.526Z,10.20
2019-04-29T08:04:13.863Z,10.30
2019-04-29T08:08:21.220Z,10.10
2019-04-29T08:12:27.099Z,10.10
2019-04-29T08:16:31.734Z,10.10
2019-04-29T08:20:39.950Z,10.00
2019-04-29T08:24:45.938Z,9.90
2019-04-29T08:28:52.973Z,10.00
2019-04-29T08:32:56.298Z,10.00
2019-04-29T08:37:01.189Z,9.90
2019-04-29T08:41:05.769Z,9.90
2019-04-29T08:45:28.242Z,9.80
2019-04-29T08:49:33.172Z,9.80
2019-04-29T08:53:38.362Z,10.00
2019-04-29T08:57:43.141Z,10.10
2019-04-29T09:01:47.870Z,10.10
2019-04-29T09:06:05.055Z,10.20
2019-04-29T09:10:01.672Z,10.40
2019-04-29T09:14:06.014Z,10.40
2019-04-29T09:18:11.276Z,10.50
2019-04-29T09:22:18.201Z,10.60
2019-04-29T09:26:32.090Z,10.50
2019-04-29T09:30:38.802Z,10.40
2019-04-29T09:34:43.663Z,10.40
2019-04-29T09:38:48.302Z,10.40
2019-04-29T09:43:25.975Z,10.50
2019-04-29T09:47:31.077Z,10.50
2019-04-29T09:51:35.727Z,10.50
2019-04-29T09:55:41.305Z,10.40
2019-04-29T09:59:51.292Z,10.70
2019-04-29T10:04:08.018Z,10.70
2019-04-29T10:08:12.703Z,10.70
2019-04-29T10:12:17.742Z,10.60
2019-04-29T10:16:39.095Z,10.70
2019-04-29T10:20:48.052Z,10.80
2019-04-29T10:24:52.703Z,10.50
2019-04-29T10:29:01.622Z,10.70
2019-04-29T10:33:06.727Z,10.80
2019-04-29T10:37:11.342Z,10.80
2019-04-29T10:41:24.686Z,10.80
2019-04-29T10:45:57.811Z,10.80
2019-04-29T10:50:16.808Z,10.80
2019-04-29T10:54:21.911Z,10.90
2019-04-29T10:58:31.142Z,11.00
2019-04-29T11:02:44.841Z,11.10
2019-04-29T11:06:47.925Z,11.20
2019-04-29T11:11:02.103Z,11.00
2019-04-29T11:15:01.747Z,11.20
2019-04-29T11:19:08.358Z,11.40
2019-04-29T11:23:35.790Z,11.40
2019-04-29T11:27:48.754Z,11.30
2019-04-29T11:31:55.902Z,11.50
2019-04-29T11:36:22.354Z,11.60
2019-04-29T11:40:42.769Z,11.70
2019-04-29T11:44:34.929Z,12.00
2019-04-29T11:48:40.980Z,11.80
2019-04-29T11:52:45.950Z,11.70
2019-04-29T11:56:50.780Z,11.90
2019-04-29T12:01:03.935Z,12.00
2019-04-29T12:05:18.087Z,12.20
2019-04-29T12:09:25.457Z,12.40
2019-04-29T12:13:41.998Z,12.50
2019-04-29T12:18:24.147Z,12.40
2019-04-29T12:22:30.989Z,12.50
2019-04-29T12:26:43.067Z,12.60
2019-04-29T12:30:43.548Z,13.10
2019-04-29T12:34:56.979Z,13.40
2019-04-29T12:39:43.096Z,13.60
2019-04-29T12:43:59.323Z,13.70
2019-04-29T12:48:02.102Z,13.70
2019-04-29T12:52:06.781Z,14.20
2019-04-29T12:56:12.778Z,14.50
2019-04-29T13:00:23.174Z,14.50
2019-04-29T13:04:51.500Z,14.50
2019-04-29T13:09:01.755Z,14.70
2019-04-29T13:13:08.218Z,15.20
2019-04-29T13:17:41.450Z,15.10
2019-04-29T13:21:48.702Z,15.10
2019-04-29T13:25:56.111Z,15.10
2019-04-29T13:30:01.678Z,14.90
2019-04-29T13:34:23.093Z,15.20
2019-04-29T13:38:15.719Z,15.50
2019-04-29T13:42:24.405Z,15.10
2019-04-29T13:47:07.296Z,15.00
2019-04-29T13:51:34.747Z,15.30
2019-04-29T13:55:47.230Z,15.50
2019-04-29T13:59:51.688Z,16.80
2019-04-29T14:04:02.549Z,16.50
2019-04-29T14:08:08.178Z,16.20
2019-04-29T14:12:47.203Z,16.10
2019-04-29T14:16:25.424Z,16.60
2019-04-29T14:20:35.642Z,16.80
2019-04-29T14:24:49.845Z,16.90
2019-04-29T14:28:55.157Z,16.90
2019-04-29T14:33:03.750Z,17.00
2019-04-29T14:37:24.879Z,17.30
2019-04-29T14:41:21.204Z,17.20
2019-04-29T14:45:32.343Z,17.50
2019-04-29T14:49:45.406Z,17.40
2019-04-29T14:53:56.636Z,17.30
2019-04-29T14:58:00.038Z,17.20
2019-04-29T15:02:16.122Z,17.10
2019-04-29T15:06:23.833Z,17.20
2019-04-29T15:10:31.287Z,17.10
2019-04-29T15:14:49.615Z,17.40
2019-04-29T15:19:13.205Z,17.10
2019-04-29T15:23:27.944Z,17.10
2019-04-29T15:27:25.610Z,17.30
2019-04-29T15:31:30.575Z,17.40
2019-04-29T15:35:35.622Z,17.30
2019-04-29T15:39:45.303Z,17.30
2019-04-29T15:43:48.325Z,17.40
2019-04-29T15:47:54.926Z,17.30
2019-04-29T15:52:01.915Z,17.50
2019-04-29T15:56:27.203Z,17.60
2019-04-29T16:00:22.221Z,17.70
2019-04-29T16:04:32.426Z,17.60
2019-04-29T16:08:59.125Z,17.40
2019-04-29T16:13:16.376Z,17.30
2019-04-29T16:17:26.377Z,17.20
2019-04-29T16:21:32.156Z,16.90
2019-04-29T16:25:40.847Z,16.70
2019-04-29T16:29:46.099Z,16.70
2019-04-29T16:37:57.990Z,16.70
2019-04-29T16:42:14.313Z,16.70
2019-04-29T16:46:27.011Z,16.60
2019-04-29T16:50:28.639Z,16.50
2019-04-29T16:54:34.174Z,16.30
2019-04-29T16:58:39.245Z,16.20
2019-04-29T17:02:45.108Z,16.10
2019-04-29T17:07:11.392Z,15.90
2019-04-29T17:11:11.970Z,15.70
2019-04-29T17:15:24.781Z,15.60
2019-04-29T17:19:23.579Z,15.40
2019-04-29T17:23:31.371Z,15.20
2019-04-29T17:28:11.825Z,15.10
2019-04-29T17:32:44.228Z,15.00
2019-04-29T17:35:19.189Z,16.70
2019-04-29T17:36:43.537Z,14.90
2019-04-29T17:40:56.421Z,14.70
2019-04-29T17:45:10.564Z,14.60
2019-04-29T17:49:30.655Z,14.40
2019-04-29T17:53:42.694Z,14.30
2019-04-29T17:57:54.865Z,14.10
2019-04-29T18:02:21.697Z,14.00
2019-04-29T18:06:30.042Z,13.80
2019-04-29T18:10:41.118Z,13.70
2019-04-29T18:14:45.852Z,13.60
2019-04-29T18:19:01.776Z,13.50
2019-04-29T18:23:31.828Z,13.30
2019-04-29T18:27:37.319Z,13.00
2019-04-29T18:31:44.427Z,12.90
2019-04-29T18:35:50.831Z,12.70
2019-04-29T18:39:57.750Z,12.60
2019-04-29T18:44:05.307Z,12.40
2019-04-29T18:48:16.676Z,12.20
2019-04-29T18:52:25.434Z,12.20
2019-04-29T18:56:23.615Z,12.00
2019-04-29T19:00:28.576Z,11.90
2019-04-29T19:05:01.260Z,11.80
2019-04-29T19:09:17.454Z,11.60
2019-04-29T19:13:16.803Z,11.40
2019-04-29T19:17:21.867Z,11.40
2019-04-29T19:21:30.441Z,11.20
2019-04-29T19:25:33.090Z,11.10
2019-04-29T19:29:38.750Z,10.90
2019-04-29T19:33:43.991Z,10.80
2019-04-29T19:37:48.707Z,10.80
2019-04-29T19:41:53.350Z,10.70
2019-04-29T19:45:59.545Z,10.60
2019-04-29T19:50:06.214Z,10.70
2019-04-29T19:54:12.272Z,10.50
2019-04-29T19:58:17.633Z,10.50
2019-04-29T20:02:23.047Z,10.40
2019-04-29T20:06:30.208Z,10.20
2019-04-29T20:10:44.423Z,10.20
2019-04-29T20:14:48.119Z,10.10
2019-04-29T20:19:16.580Z,10.10
2019-04-29T20:23:24.900Z,10.00
2019-04-29T20:27:28.745Z,10.00
2019-04-29T20:31:30.499Z,10.20
2019-04-29T20:35:40.517Z,9.90
2019-04-29T20:39:45.420Z,9.80
2019-04-29T20:43:49.887Z,9.70
2019-04-29T20:47:58.016Z,9.80
2019-04-29T20:52:20.339Z,9.60
2019-04-29T20:56:27.561Z,9.30
2019-04-29T21:00:28.734Z,9.30
2019-04-29T21:04:39.139Z,9.30
2019-04-29T21:08:40.019Z,9.30
2019-04-29T21:12:59.550Z,9.20
2019-04-29T21:17:09.507Z,9.10
2019-04-29T21:21:10.856Z,9.20
2019-04-29T21:25:15.606Z,9.00
2019-04-29T21:29:20.250Z,8.90
2019-04-29T21:33:25.503Z,8.90
2019-04-29T21:37:40.062Z,8.90
2019-04-29T21:41:55.466Z,8.70
2019-04-29T21:45:59.355Z,8.70
2019-04-29T21:50:05.072Z,8.70
2019-04-29T21:54:14.093Z,8.60
2019-04-29T21:58:16.245Z,8.50
2019-04-29T22:02:21.011Z,8.50
2019-04-29T22:06:29.112Z,8.40
2019-04-29T22:10:35.082Z,8.50
2019-04-29T22:14:39.708Z,8.30
2019-04-29T22:18:50.768Z,8.20
2019-04-29T22:22:50.949Z,8.20
2019-04-29T22:27:03.388Z,8.10
2019-04-29T22:31:02.375Z,8.20
2019-04-29T22:35:08.634Z,8.20
2019-04-29T22:39:13.242Z,8.10
2019-04-29T22:43:36.015Z,8.10
2019-04-29T22:47:42.007Z,8.00
2019-04-29T22:51:49.697Z,7.90
2019-04-29T22:55:53.127Z,7.80
2019-04-29T22:59:58.076Z,7.80
2019-04-29T23:04:02.720Z,7.60
2019-04-29T23:08:07.426Z,7.60
2019-04-29T23:12:17.031Z,7.60
2019-04-29T23:16:18.518Z,7.60
2019-04-29T23:20:41.198Z,7.40
2019-04-29T23:25:11.052Z,7.40
2019-04-29T23:29:15.732Z,7.40
2019-04-29T23:33:23.996Z,7.30
2019-04-29T23:37:29.474Z,7.20
2019-04-29T23:41:36.659Z,7.30
2019-04-29T23:45:40.678Z,7.10
2019-04-29T23:49:46.812Z,7.20
2019-04-29T23:53:56.019Z,7.10
2019-04-29T23:58:07.355Z,7.20
